sensor_id;sensor_type;location;lat;lon;timestamp;P1;durP1;ratioP1;P2;durP2;ratioP2
68247;SDS011;55064;49.636;12.164;2023-02-15T00:02:01;21.27;;;5.97;;
68247;SDS011;55064;49.636;12.164;2023-02-15T00:04:26;25.13;;;6.47;;
68247;SDS011;55064;49.636;12.164;2023-02-15T00:07:11;19.23;;;6.37;;
68247;SDS011;55064;49.636;12.164;2023-02-15T00:09:40;19.00;;;6.97;;
68247;SDS011;55064;49.636;12.164;2023-02-15T00:12:05;20.27;;;5.73;;
68247;SDS011;55064;49.636;12.164;2023-02-15T00:14:31;24.38;;;7.60;;
68247;SDS011;55064;49.636;12.164;2023-02-15T00:16:56;20.13;;;6.67;;
68247;SDS011;55064;49.636;12.164;2023-02-15T00:19:24;18.02;;;5.10;;
68247;SDS011;55064;49.636;12.164;2023-02-15T00:21:54;18.70;;;5.40;;
68247;SDS011;55064;49.636;12.164;2023-02-15T00:24:20;19.92;;;6.50;;
68247;SDS011;55064;49.636;12.164;2023-02-15T00:26:46;20.13;;;6.93;;
68247;SDS011;55064;49.636;12.164;2023-02-15T00:29:15;21.48;;;7.78;;
68247;SDS011;55064;49.636;12.164;2023-02-15T00:31:42;23.15;;;6.47;;
68247;SDS011;55064;49.636;12.164;2023-02-15T00:34:11;22.83;;;7.07;;
68247;SDS011;55064;49.636;12.164;2023-02-15T00:36:41;24.10;;;6.80;;
68247;SDS011;55064;49.636;12.164;2023-02-15T00:39:08;22.63;;;7.40;;
68247;SDS011;55064;49.636;12.164;2023-02-15T00:41:38;21.80;;;6.50;;
68247;SDS011;55064;49.636;12.164;2023-02-15T00:44:04;24.37;;;7.10;;
68247;SDS011;55064;49.636;12.164;2023-02-15T00:46:30;28.42;;;7.90;;
68247;SDS011;55064;49.636;12.164;2023-02-15T00:48:56;23.53;;;7.43;;
68247;SDS011;55064;49.636;12.164;2023-02-15T00:51:22;28.95;;;8.85;;
68247;SDS011;55064;49.636;12.164;2023-02-15T00:53:47;30.13;;;8.20;;
68247;SDS011;55064;49.636;12.164;2023-02-15T00:56:15;21.37;;;7.50;;
68247;SDS011;55064;49.636;12.164;2023-02-15T00:58:43;25.47;;;8.50;;
68247;SDS011;55064;49.636;12.164;2023-02-15T01:01:10;23.87;;;7.60;;
68247;SDS011;55064;49.636;12.164;2023-02-15T01:03:39;26.60;;;8.70;;
68247;SDS011;55064;49.636;12.164;2023-02-15T01:06:08;23.35;;;7.65;;
68247;SDS011;55064;49.636;12.164;2023-02-15T01:08:33;23.98;;;7.88;;
68247;SDS011;55064;49.636;12.164;2023-02-15T01:11:03;21.10;;;6.57;;
68247;SDS011;55064;49.636;12.164;2023-02-15T01:13:33;18.23;;;5.55;;
68247;SDS011;55064;49.636;12.164;2023-02-15T01:15:59;17.27;;;5.72;;
68247;SDS011;55064;49.636;12.164;2023-02-15T01:18:26;18.60;;;5.93;;
68247;SDS011;55064;49.636;12.164;2023-02-15T01:20:52;16.92;;;5.75;;
68247;SDS011;55064;49.636;12.164;2023-02-15T01:23:17;13.77;;;4.80;;
68247;SDS011;55064;49.636;12.164;2023-02-15T01:25:44;18.13;;;4.97;;
68247;SDS011;55064;49.636;12.164;2023-02-15T01:28:11;16.67;;;6.10;;
68247;SDS011;55064;49.636;12.164;2023-02-15T01:30:39;16.07;;;5.50;;
68247;SDS011;55064;49.636;12.164;2023-02-15T01:33:04;16.63;;;6.20;;
68247;SDS011;55064;49.636;12.164;2023-02-15T01:35:30;22.20;;;6.60;;
68247;SDS011;55064;49.636;12.164;2023-02-15T01:37:57;19.35;;;6.95;;
68247;SDS011;55064;49.636;12.164;2023-02-15T01:40:22;21.05;;;7.25;;
68247;SDS011;55064;49.636;12.164;2023-02-15T01:42:54;17.35;;;5.95;;
68247;SDS011;55064;49.636;12.164;2023-02-15T01:48:09;21.40;;;6.60;;
68247;SDS011;55064;49.636;12.164;2023-02-15T01:50:58;17.70;;;6.43;;
68247;SDS011;55064;49.636;12.164;2023-02-15T01:53:49;19.73;;;5.75;;
68247;SDS011;55064;49.636;12.164;2023-02-15T01:56:25;19.45;;;6.47;;
68247;SDS011;55064;49.636;12.164;2023-02-15T01:58:56;15.65;;;5.22;;
68247;SDS011;55064;49.636;12.164;2023-02-15T02:01:26;16.77;;;5.70;;
68247;SDS011;55064;49.636;12.164;2023-02-15T02:04:04;18.98;;;6.68;;
68247;SDS011;55064;49.636;12.164;2023-02-15T02:06:49;16.70;;;5.57;;
68247;SDS011;55064;49.636;12.164;2023-02-15T02:09:15;19.40;;;6.47;;
68247;SDS011;55064;49.636;12.164;2023-02-15T02:11:41;18.37;;;6.57;;
68247;SDS011;55064;49.636;12.164;2023-02-15T02:14:12;17.70;;;5.57;;
68247;SDS011;55064;49.636;12.164;2023-02-15T02:19:18;16.20;;;4.90;;
68247;SDS011;55064;49.636;12.164;2023-02-15T02:44:09;16.63;;;5.53;;
68247;SDS011;55064;49.636;12.164;2023-02-15T02:49:11;15.57;;;5.03;;
68247;SDS011;55064;49.636;12.164;2023-02-15T02:51:37;15.37;;;5.57;;
68247;SDS011;55064;49.636;12.164;2023-02-15T02:54:04;14.52;;;5.60;;
68247;SDS011;55064;49.636;12.164;2023-02-15T02:56:42;15.70;;;5.60;;
68247;SDS011;55064;49.636;12.164;2023-02-15T02:59:19;15.20;;;5.32;;
68247;SDS011;55064;49.636;12.164;2023-02-15T03:01:57;14.10;;;5.07;;
68247;SDS011;55064;49.636;12.164;2023-02-15T03:04:34;15.65;;;5.50;;
68247;SDS011;55064;49.636;12.164;2023-02-15T03:07:02;15.10;;;5.30;;
68247;SDS011;55064;49.636;12.164;2023-02-15T03:09:36;14.83;;;4.80;;
68247;SDS011;55064;49.636;12.164;2023-02-15T03:12:10;13.88;;;5.30;;
68247;SDS011;55064;49.636;12.164;2023-02-15T03:14:44;15.68;;;5.25;;
68247;SDS011;55064;49.636;12.164;2023-02-15T03:17:21;14.73;;;4.82;;
68247;SDS011;55064;49.636;12.164;2023-02-15T03:19:48;16.00;;;6.00;;
68247;SDS011;55064;49.636;12.164;2023-02-15T03:22:21;15.17;;;5.63;;
68247;SDS011;55064;49.636;12.164;2023-02-15T03:25:04;19.23;;;5.90;;
68247;SDS011;55064;49.636;12.164;2023-02-15T03:27:39;15.85;;;5.53;;
68247;SDS011;55064;49.636;12.164;2023-02-15T03:30:08;17.15;;;5.32;;
68247;SDS011;55064;49.636;12.164;2023-02-15T03:32:37;15.82;;;5.43;;
68247;SDS011;55064;49.636;12.164;2023-02-15T03:35:04;16.60;;;5.80;;
68247;SDS011;55064;49.636;12.164;2023-02-15T03:40:18;15.35;;;5.03;;
68247;SDS011;55064;49.636;12.164;2023-02-15T03:45:44;18.13;;;6.03;;
68247;SDS011;55064;49.636;12.164;2023-02-15T03:48:26;15.60;;;4.60;;
68247;SDS011;55064;49.636;12.164;2023-02-15T03:50:58;17.02;;;5.85;;
68247;SDS011;55064;49.636;12.164;2023-02-15T03:53:48;13.98;;;5.35;;
68247;SDS011;55064;49.636;12.164;2023-02-15T03:56:15;15.23;;;5.35;;
68247;SDS011;55064;49.636;12.164;2023-02-15T03:58:41;16.27;;;5.80;;
68247;SDS011;55064;49.636;12.164;2023-02-15T04:01:38;14.60;;;5.30;;
68247;SDS011;55064;49.636;12.164;2023-02-15T04:04:42;14.87;;;5.37;;
68247;SDS011;55064;49.636;12.164;2023-02-15T04:07:10;16.08;;;5.50;;
68247;SDS011;55064;49.636;12.164;2023-02-15T04:09:35;14.50;;;4.70;;
68247;SDS011;55064;49.636;12.164;2023-02-15T04:12:20;14.03;;;5.23;;
68247;SDS011;55064;49.636;12.164;2023-02-15T04:14:45;15.07;;;4.82;;
68247;SDS011;55064;49.636;12.164;2023-02-15T04:17:29;16.23;;;4.87;;
68247;SDS011;55064;49.636;12.164;2023-02-15T04:19:54;14.07;;;4.90;;
68247;SDS011;55064;49.636;12.164;2023-02-15T04:22:38;15.47;;;5.17;;
68247;SDS011;55064;49.636;12.164;2023-02-15T04:25:22;14.90;;;5.45;;
68247;SDS011;55064;49.636;12.164;2023-02-15T04:27:49;12.27;;;3.60;;
68247;SDS011;55064;49.636;12.164;2023-02-15T04:30:19;13.65;;;4.68;;
68247;SDS011;55064;49.636;12.164;2023-02-15T04:32:48;15.80;;;4.93;;
68247;SDS011;55064;49.636;12.164;2023-02-15T04:35:15;17.52;;;5.65;;
68247;SDS011;55064;49.636;12.164;2023-02-15T04:37:41;12.93;;;4.33;;
68247;SDS011;55064;49.636;12.164;2023-02-15T04:40:08;14.90;;;5.28;;
68247;SDS011;55064;49.636;12.164;2023-02-15T04:42:35;15.68;;;5.05;;
68247;SDS011;55064;49.636;12.164;2023-02-15T04:45:01;13.60;;;4.75;;
68247;SDS011;55064;49.636;12.164;2023-02-15T04:47:29;14.55;;;4.57;;
68247;SDS011;55064;49.636;12.164;2023-02-15T04:49:55;15.30;;;5.87;;
68247;SDS011;55064;49.636;12.164;2023-02-15T04:52:20;15.03;;;5.10;;
68247;SDS011;55064;49.636;12.164;2023-02-15T04:54:46;16.13;;;4.77;;
68247;SDS011;55064;49.636;12.164;2023-02-15T05:06:17;15.57;;;5.47;;
68247;SDS011;55064;49.636;12.164;2023-02-15T05:19:02;15.55;;;5.22;;
68247;SDS011;55064;49.636;12.164;2023-02-15T05:24:49;19.65;;;7.00;;
68247;SDS011;55064;49.636;12.164;2023-02-15T05:27:33;24.50;;;6.72;;
68247;SDS011;55064;49.636;12.164;2023-02-15T05:30:19;21.02;;;6.53;;
68247;SDS011;55064;49.636;12.164;2023-02-15T05:39:23;22.50;;;6.13;;
68247;SDS011;55064;49.636;12.164;2023-02-15T05:52:09;19.52;;;6.65;;
68247;SDS011;55064;49.636;12.164;2023-02-15T05:54:34;19.10;;;5.90;;
68247;SDS011;55064;49.636;12.164;2023-02-15T06:00:10;17.83;;;5.67;;
68247;SDS011;55064;49.636;12.164;2023-02-15T06:02:37;22.13;;;6.78;;
68247;SDS011;55064;49.636;12.164;2023-02-15T06:05:04;16.15;;;5.35;;
68247;SDS011;55064;49.636;12.164;2023-02-15T06:07:32;21.95;;;7.22;;
68247;SDS011;55064;49.636;12.164;2023-02-15T06:10:16;23.23;;;7.82;;
68247;SDS011;55064;49.636;12.164;2023-02-15T06:13:03;21.73;;;6.90;;
68247;SDS011;55064;49.636;12.164;2023-02-15T06:15:36;17.60;;;6.22;;
68247;SDS011;55064;49.636;12.164;2023-02-15T06:18:14;17.98;;;6.45;;
68247;SDS011;55064;49.636;12.164;2023-02-15T06:27:13;18.77;;;6.40;;
68247;SDS011;55064;49.636;12.164;2023-02-15T06:29:39;20.85;;;7.22;;
68247;SDS011;55064;49.636;12.164;2023-02-15T06:32:05;19.63;;;7.18;;
68247;SDS011;55064;49.636;12.164;2023-02-15T06:34:30;18.45;;;6.60;;
68247;SDS011;55064;49.636;12.164;2023-02-15T06:36:56;21.03;;;7.63;;
68247;SDS011;55064;49.636;12.164;2023-02-15T06:39:22;20.67;;;7.43;;
68247;SDS011;55064;49.636;12.164;2023-02-15T06:41:48;21.38;;;7.40;;
68247;SDS011;55064;49.636;12.164;2023-02-15T06:44:13;22.77;;;7.53;;
68247;SDS011;55064;49.636;12.164;2023-02-15T06:46:39;22.07;;;7.43;;
68247;SDS011;55064;49.636;12.164;2023-02-15T06:49:04;23.95;;;6.57;;
68247;SDS011;55064;49.636;12.164;2023-02-15T06:51:29;20.60;;;7.37;;
68247;SDS011;55064;49.636;12.164;2023-02-15T06:53:55;18.67;;;6.70;;
68247;SDS011;55064;49.636;12.164;2023-02-15T06:56:22;20.83;;;5.83;;
68247;SDS011;55064;49.636;12.164;2023-02-15T06:58:48;18.35;;;6.82;;
68247;SDS011;55064;49.636;12.164;2023-02-15T07:01:14;20.65;;;6.88;;
68247;SDS011;55064;49.636;12.164;2023-02-15T07:03:45;14.80;;;5.65;;
68247;SDS011;55064;49.636;12.164;2023-02-15T07:06:11;22.47;;;8.20;;
68247;SDS011;55064;49.636;12.164;2023-02-15T07:08:38;19.80;;;7.70;;
68247;SDS011;55064;49.636;12.164;2023-02-15T07:11:04;16.83;;;5.87;;
68247;SDS011;55064;49.636;12.164;2023-02-15T07:13:51;21.23;;;6.83;;
68247;SDS011;55064;49.636;12.164;2023-02-15T07:16:18;20.10;;;6.18;;
68247;SDS011;55064;49.636;12.164;2023-02-15T07:18:44;19.73;;;6.47;;
68247;SDS011;55064;49.636;12.164;2023-02-15T07:21:09;21.73;;;6.73;;
68247;SDS011;55064;49.636;12.164;2023-02-15T07:23:38;21.50;;;7.37;;
68247;SDS011;55064;49.636;12.164;2023-02-15T07:26:04;19.17;;;6.40;;
68247;SDS011;55064;49.636;12.164;2023-02-15T07:28:33;21.90;;;7.32;;
68247;SDS011;55064;49.636;12.164;2023-02-15T07:31:03;19.17;;;6.32;;
68247;SDS011;55064;49.636;12.164;2023-02-15T07:33:34;18.88;;;6.97;;
68247;SDS011;55064;49.636;12.164;2023-02-15T07:36:01;16.93;;;5.97;;
68247;SDS011;55064;49.636;12.164;2023-02-15T07:38:35;15.10;;;5.93;;
68247;SDS011;55064;49.636;12.164;2023-02-15T07:41:06;21.67;;;7.90;;
68247;SDS011;55064;49.636;12.164;2023-02-15T07:43:34;20.75;;;6.80;;
68247;SDS011;55064;49.636;12.164;2023-02-15T07:46:02;16.50;;;6.32;;
68247;SDS011;55064;49.636;12.164;2023-02-15T07:48:29;19.42;;;6.40;;
68247;SDS011;55064;49.636;12.164;2023-02-15T07:50:58;21.60;;;7.60;;
68247;SDS011;55064;49.636;12.164;2023-02-15T07:53:27;19.95;;;6.88;;
68247;SDS011;55064;49.636;12.164;2023-02-15T07:55:53;18.27;;;6.57;;
68247;SDS011;55064;49.636;12.164;2023-02-15T07:58:19;18.70;;;7.00;;
68247;SDS011;55064;49.636;12.164;2023-02-15T08:01:08;18.55;;;6.65;;
68247;SDS011;55064;49.636;12.164;2023-02-15T08:03:36;18.98;;;7.50;;
68247;SDS011;55064;49.636;12.164;2023-02-15T08:06:01;20.57;;;6.63;;
68247;SDS011;55064;49.636;12.164;2023-02-15T08:08:30;18.60;;;6.47;;
68247;SDS011;55064;49.636;12.164;2023-02-15T08:10:59;19.13;;;7.60;;
68247;SDS011;55064;49.636;12.164;2023-02-15T08:13:51;22.00;;;6.68;;
68247;SDS011;55064;49.636;12.164;2023-02-15T08:21:46;17.05;;;6.00;;
68247;SDS011;55064;49.636;12.164;2023-02-15T08:24:14;19.77;;;6.47;;
68247;SDS011;55064;49.636;12.164;2023-02-15T08:26:42;21.00;;;6.88;;
68247;SDS011;55064;49.636;12.164;2023-02-15T08:29:09;19.95;;;6.78;;
68247;SDS011;55064;49.636;12.164;2023-02-15T08:31:37;20.20;;;6.90;;
68247;SDS011;55064;49.636;12.164;2023-02-15T08:34:05;18.33;;;6.70;;
68247;SDS011;55064;49.636;12.164;2023-02-15T08:36:31;20.03;;;7.30;;
68247;SDS011;55064;49.636;12.164;2023-02-15T08:38:57;18.63;;;6.90;;
68247;SDS011;55064;49.636;12.164;2023-02-15T08:41:24;20.42;;;6.63;;
68247;SDS011;55064;49.636;12.164;2023-02-15T08:43:55;21.07;;;7.70;;
68247;SDS011;55064;49.636;12.164;2023-02-15T08:46:23;22.50;;;7.85;;
68247;SDS011;55064;49.636;12.164;2023-02-15T08:48:53;22.00;;;6.70;;
68247;SDS011;55064;49.636;12.164;2023-02-15T08:51:22;18.23;;;7.00;;
68247;SDS011;55064;49.636;12.164;2023-02-15T08:53:54;21.10;;;7.20;;
68247;SDS011;55064;49.636;12.164;2023-02-15T08:56:23;17.35;;;6.00;;
68247;SDS011;55064;49.636;12.164;2023-02-15T08:58:51;18.42;;;6.25;;
68247;SDS011;55064;49.636;12.164;2023-02-15T09:01:18;19.88;;;6.30;;
68247;SDS011;55064;49.636;12.164;2023-02-15T09:03:46;20.88;;;7.40;;
68247;SDS011;55064;49.636;12.164;2023-02-15T09:06:13;16.53;;;6.77;;
68247;SDS011;55064;49.636;12.164;2023-02-15T09:08:40;19.67;;;7.38;;
68247;SDS011;55064;49.636;12.164;2023-02-15T09:11:06;19.38;;;7.20;;
68247;SDS011;55064;49.636;12.164;2023-02-15T09:13:32;18.77;;;6.55;;
68247;SDS011;55064;49.636;12.164;2023-02-15T09:16:01;19.83;;;6.83;;
68247;SDS011;55064;49.636;12.164;2023-02-15T09:18:29;23.55;;;7.90;;
68247;SDS011;55064;49.636;12.164;2023-02-15T09:20:55;19.85;;;7.55;;
68247;SDS011;55064;49.636;12.164;2023-02-15T09:23:21;19.27;;;7.23;;
68247;SDS011;55064;49.636;12.164;2023-02-15T09:25:47;17.95;;;7.25;;
68247;SDS011;55064;49.636;12.164;2023-02-15T09:28:12;20.73;;;7.47;;
68247;SDS011;55064;49.636;12.164;2023-02-15T09:30:39;18.83;;;6.40;;
68247;SDS011;55064;49.636;12.164;2023-02-15T09:33:04;19.33;;;6.93;;
68247;SDS011;55064;49.636;12.164;2023-02-15T09:35:29;21.67;;;7.60;;
68247;SDS011;55064;49.636;12.164;2023-02-15T09:37:55;21.23;;;7.60;;
68247;SDS011;55064;49.636;12.164;2023-02-15T09:40:20;23.17;;;8.13;;
68247;SDS011;55064;49.636;12.164;2023-02-15T09:43:01;23.67;;;8.68;;
68247;SDS011;55064;49.636;12.164;2023-02-15T09:45:50;18.58;;;7.10;;
68247;SDS011;55064;49.636;12.164;2023-02-15T09:48:38;19.23;;;7.20;;
68247;SDS011;55064;49.636;12.164;2023-02-15T09:53:41;18.57;;;7.33;;
68247;SDS011;55064;49.636;12.164;2023-02-15T09:56:31;20.75;;;7.50;;
68247;SDS011;55064;49.636;12.164;2023-02-15T10:28:20;19.67;;;7.10;;
68247;SDS011;55064;49.636;12.164;2023-02-15T10:30:51;21.35;;;7.50;;
68247;SDS011;55064;49.636;12.164;2023-02-15T10:38:40;18.73;;;7.32;;
68247;SDS011;55064;49.636;12.164;2023-02-15T10:49:33;18.00;;;6.90;;
68247;SDS011;55064;49.636;12.164;2023-02-15T10:55:47;19.38;;;6.85;;
68247;SDS011;55064;49.636;12.164;2023-02-15T11:07:04;17.02;;;6.45;;
68247;SDS011;55064;49.636;12.164;2023-02-15T11:09:37;20.00;;;7.13;;
68247;SDS011;55064;49.636;12.164;2023-02-15T11:12:08;19.38;;;7.45;;
68247;SDS011;55064;49.636;12.164;2023-02-15T11:14:39;18.83;;;6.70;;
68247;SDS011;55064;49.636;12.164;2023-02-15T11:17:21;18.43;;;6.90;;
68247;SDS011;55064;49.636;12.164;2023-02-15T11:19:55;20.15;;;7.38;;
68247;SDS011;55064;49.636;12.164;2023-02-15T11:22:21;18.48;;;7.40;;
68247;SDS011;55064;49.636;12.164;2023-02-15T11:24:47;22.80;;;7.60;;
68247;SDS011;55064;49.636;12.164;2023-02-15T11:27:18;21.48;;;8.30;;
68247;SDS011;55064;49.636;12.164;2023-02-15T11:32:56;19.08;;;7.75;;
68247;SDS011;55064;49.636;12.164;2023-02-15T11:35:29;19.07;;;6.77;;
68247;SDS011;55064;49.636;12.164;2023-02-15T11:38:33;20.08;;;7.90;;
68247;SDS011;55064;49.636;12.164;2023-02-15T11:41:09;22.27;;;7.63;;
68247;SDS011;55064;49.636;12.164;2023-02-15T11:43:40;19.13;;;7.65;;
68247;SDS011;55064;49.636;12.164;2023-02-15T11:46:07;21.20;;;7.40;;
68247;SDS011;55064;49.636;12.164;2023-02-15T11:48:38;21.50;;;7.93;;
68247;SDS011;55064;49.636;12.164;2023-02-15T11:51:04;22.65;;;7.57;;
68247;SDS011;55064;49.636;12.164;2023-02-15T11:53:33;19.55;;;7.53;;
68247;SDS011;55064;49.636;12.164;2023-02-15T11:56:04;23.57;;;8.33;;
68247;SDS011;55064;49.636;12.164;2023-02-15T12:01:11;18.77;;;6.75;;
68247;SDS011;55064;49.636;12.164;2023-02-15T12:03:43;19.08;;;6.68;;
68247;SDS011;55064;49.636;12.164;2023-02-15T12:12:36;17.85;;;6.47;;
68247;SDS011;55064;49.636;12.164;2023-02-15T12:15:04;20.00;;;6.93;;
68247;SDS011;55064;49.636;12.164;2023-02-15T12:20:06;20.13;;;7.53;;
68247;SDS011;55064;49.636;12.164;2023-02-15T12:30:47;19.90;;;7.15;;
68247;SDS011;55064;49.636;12.164;2023-02-15T12:35:57;19.42;;;8.15;;
68247;SDS011;55064;49.636;12.164;2023-02-15T12:38:28;17.25;;;7.28;;
68247;SDS011;55064;49.636;12.164;2023-02-15T12:41:01;20.95;;;8.38;;
68247;SDS011;55064;49.636;12.164;2023-02-15T12:43:46;18.97;;;6.93;;
68247;SDS011;55064;49.636;12.164;2023-02-15T12:46:22;17.30;;;6.55;;
68247;SDS011;55064;49.636;12.164;2023-02-15T12:49:05;18.10;;;6.43;;
68247;SDS011;55064;49.636;12.164;2023-02-15T12:51:43;17.65;;;6.72;;
68247;SDS011;55064;49.636;12.164;2023-02-15T12:54:38;14.68;;;5.13;;
68247;SDS011;55064;49.636;12.164;2023-02-15T13:00:01;20.23;;;6.95;;
68247;SDS011;55064;49.636;12.164;2023-02-15T13:05:35;18.10;;;6.72;;
68247;SDS011;55064;49.636;12.164;2023-02-15T13:08:14;21.27;;;8.85;;
68247;SDS011;55064;49.636;12.164;2023-02-15T13:10:58;17.90;;;7.07;;
68247;SDS011;55064;49.636;12.164;2023-02-15T13:13:28;18.77;;;6.93;;
68247;SDS011;55064;49.636;12.164;2023-02-15T13:15:58;24.70;;;8.17;;
68247;SDS011;55064;49.636;12.164;2023-02-15T13:20:52;20.37;;;7.13;;
68247;SDS011;55064;49.636;12.164;2023-02-15T13:23:28;18.85;;;6.57;;
68247;SDS011;55064;49.636;12.164;2023-02-15T13:25:55;20.93;;;6.80;;
68247;SDS011;55064;49.636;12.164;2023-02-15T13:28:24;17.67;;;6.85;;
68247;SDS011;55064;49.636;12.164;2023-02-15T13:31:01;23.33;;;8.85;;
68247;SDS011;55064;49.636;12.164;2023-02-15T13:33:33;26.10;;;8.13;;
68247;SDS011;55064;49.636;12.164;2023-02-15T13:36:29;24.60;;;8.50;;
68247;SDS011;55064;49.636;12.164;2023-02-15T13:41:30;23.52;;;8.82;;
68247;SDS011;55064;49.636;12.164;2023-02-15T13:47:09;27.13;;;9.70;;
68247;SDS011;55064;49.636;12.164;2023-02-15T13:49:53;26.40;;;9.05;;
68247;SDS011;55064;49.636;12.164;2023-02-15T13:52:21;20.83;;;8.80;;
68247;SDS011;55064;49.636;12.164;2023-02-15T13:54:53;25.38;;;8.75;;
68247;SDS011;55064;49.636;12.164;2023-02-15T14:00:30;21.95;;;9.18;;
68247;SDS011;55064;49.636;12.164;2023-02-15T14:11:32;25.00;;;9.20;;
68247;SDS011;55064;49.636;12.164;2023-02-15T14:25:30;21.90;;;8.67;;
68247;SDS011;55064;49.636;12.164;2023-02-15T14:30:31;27.35;;;10.15;;
68247;SDS011;55064;49.636;12.164;2023-02-15T14:35:32;25.75;;;9.73;;
68247;SDS011;55064;49.636;12.164;2023-02-15T14:40:31;32.03;;;11.55;;
68247;SDS011;55064;49.636;12.164;2023-02-15T14:43:20;26.27;;;9.63;;
68247;SDS011;55064;49.636;12.164;2023-02-15T14:45:55;27.33;;;10.27;;
68247;SDS011;55064;49.636;12.164;2023-02-15T14:48:31;31.33;;;10.38;;
68247;SDS011;55064;49.636;12.164;2023-02-15T14:51:03;30.58;;;10.75;;
68247;SDS011;55064;49.636;12.164;2023-02-15T14:58:35;25.77;;;8.43;;
68247;SDS011;55064;49.636;12.164;2023-02-15T15:01:06;23.60;;;9.13;;
68247;SDS011;55064;49.636;12.164;2023-02-15T15:03:33;22.98;;;9.13;;
68247;SDS011;55064;49.636;12.164;2023-02-15T15:06:02;28.27;;;9.85;;
68247;SDS011;55064;49.636;12.164;2023-02-15T15:08:33;28.83;;;9.80;;
68247;SDS011;55064;49.636;12.164;2023-02-15T15:13:55;26.95;;;10.40;;
68247;SDS011;55064;49.636;12.164;2023-02-15T15:18:54;31.17;;;9.30;;
68247;SDS011;55064;49.636;12.164;2023-02-15T15:32:38;29.02;;;9.10;;
68247;SDS011;55064;49.636;12.164;2023-02-15T15:37:56;24.57;;;8.87;;
68247;SDS011;55064;49.636;12.164;2023-02-15T15:43:30;25.38;;;8.80;;
68247;SDS011;55064;49.636;12.164;2023-02-15T15:49:02;30.13;;;9.55;;
68247;SDS011;55064;49.636;12.164;2023-02-15T15:51:41;25.53;;;9.77;;
68247;SDS011;55064;49.636;12.164;2023-02-15T15:54:12;26.40;;;9.23;;
68247;SDS011;55064;49.636;12.164;2023-02-15T15:56:53;24.50;;;9.02;;
68247;SDS011;55064;49.636;12.164;2023-02-15T15:59:28;27.45;;;9.50;;
68247;SDS011;55064;49.636;12.164;2023-02-15T16:02:03;28.95;;;10.20;;
68247;SDS011;55064;49.636;12.164;2023-02-15T16:04:32;28.20;;;9.70;;
68247;SDS011;55064;49.636;12.164;2023-02-15T16:07:16;26.25;;;9.07;;
68247;SDS011;55064;49.636;12.164;2023-02-15T16:12:35;26.67;;;9.90;;
68247;SDS011;55064;49.636;12.164;2023-02-15T16:15:25;27.95;;;9.77;;
68247;SDS011;55064;49.636;12.164;2023-02-15T16:17:54;36.90;;;12.77;;
68247;SDS011;55064;49.636;12.164;2023-02-15T16:20:26;26.40;;;9.85;;
68247;SDS011;55064;49.636;12.164;2023-02-15T16:23:05;29.48;;;10.75;;
68247;SDS011;55064;49.636;12.164;2023-02-15T16:28:51;30.63;;;10.73;;
68247;SDS011;55064;49.636;12.164;2023-02-15T16:31:18;29.93;;;10.73;;
68247;SDS011;55064;49.636;12.164;2023-02-15T16:33:47;30.70;;;10.13;;
68247;SDS011;55064;49.636;12.164;2023-02-15T16:36:26;29.15;;;10.35;;
68247;SDS011;55064;49.636;12.164;2023-02-15T16:43:52;31.23;;;9.57;;
68247;SDS011;55064;49.636;12.164;2023-02-15T16:46:24;27.70;;;9.65;;
68247;SDS011;55064;49.636;12.164;2023-02-15T16:48:51;28.23;;;10.45;;
68247;SDS011;55064;49.636;12.164;2023-02-15T16:51:20;27.35;;;10.07;;
68247;SDS011;55064;49.636;12.164;2023-02-15T16:53:56;32.00;;;9.67;;
68247;SDS011;55064;49.636;12.164;2023-02-15T16:56:29;28.42;;;9.77;;
68247;SDS011;55064;49.636;12.164;2023-02-15T16:58:56;31.73;;;10.50;;
68247;SDS011;55064;49.636;12.164;2023-02-15T17:01:26;23.25;;;8.90;;
68247;SDS011;55064;49.636;12.164;2023-02-15T17:07:13;30.23;;;10.67;;
68247;SDS011;55064;49.636;12.164;2023-02-15T17:19:22;38.42;;;11.63;;
68247;SDS011;55064;49.636;12.164;2023-02-15T17:22:03;33.43;;;10.63;;
68247;SDS011;55064;49.636;12.164;2023-02-15T17:24:43;33.38;;;10.65;;
68247;SDS011;55064;49.636;12.164;2023-02-15T17:30:14;30.17;;;11.50;;
68247;SDS011;55064;49.636;12.164;2023-02-15T17:33:47;36.05;;;11.18;;
68247;SDS011;55064;49.636;12.164;2023-02-15T17:36:32;34.03;;;11.00;;
68247;SDS011;55064;49.636;12.164;2023-02-15T17:41:24;37.42;;;12.80;;
68247;SDS011;55064;49.636;12.164;2023-02-15T17:43:53;37.00;;;11.43;;
68247;SDS011;55064;49.636;12.164;2023-02-15T17:46:18;33.67;;;11.30;;
68247;SDS011;55064;49.636;12.164;2023-02-15T17:48:47;34.25;;;11.55;;
68247;SDS011;55064;49.636;12.164;2023-02-15T17:51:14;36.35;;;11.25;;
68247;SDS011;55064;49.636;12.164;2023-02-15T17:53:41;32.33;;;11.57;;
68247;SDS011;55064;49.636;12.164;2023-02-15T17:56:31;37.05;;;11.77;;
68247;SDS011;55064;49.636;12.164;2023-02-15T17:59:00;31.52;;;11.40;;
68247;SDS011;55064;49.636;12.164;2023-02-15T18:01:27;33.20;;;11.27;;
68247;SDS011;55064;49.636;12.164;2023-02-15T18:04:11;32.13;;;10.52;;
68247;SDS011;55064;49.636;12.164;2023-02-15T18:06:57;36.03;;;11.65;;
68247;SDS011;55064;49.636;12.164;2023-02-15T18:09:43;38.20;;;12.15;;
68247;SDS011;55064;49.636;12.164;2023-02-15T18:12:40;39.23;;;12.33;;
68247;SDS011;55064;49.636;12.164;2023-02-15T18:15:08;34.30;;;11.90;;
68247;SDS011;55064;49.636;12.164;2023-02-15T18:20:44;31.73;;;11.55;;
68247;SDS011;55064;49.636;12.164;2023-02-15T18:23:13;33.67;;;11.82;;
68247;SDS011;55064;49.636;12.164;2023-02-15T18:25:42;33.83;;;11.87;;
68247;SDS011;55064;49.636;12.164;2023-02-15T18:28:08;38.72;;;13.23;;
68247;SDS011;55064;49.636;12.164;2023-02-15T18:30:38;43.25;;;13.73;;
68247;SDS011;55064;49.636;12.164;2023-02-15T18:33:18;33.47;;;12.02;;
68247;SDS011;55064;49.636;12.164;2023-02-15T18:35:53;36.22;;;11.90;;
68247;SDS011;55064;49.636;12.164;2023-02-15T18:38:20;39.37;;;12.67;;
68247;SDS011;55064;49.636;12.164;2023-02-15T18:40:46;41.35;;;13.02;;
68247;SDS011;55064;49.636;12.164;2023-02-15T18:43:22;35.33;;;12.20;;
68247;SDS011;55064;49.636;12.164;2023-02-15T18:51:46;36.47;;;12.45;;
68247;SDS011;55064;49.636;12.164;2023-02-15T18:59:55;41.03;;;14.32;;
68247;SDS011;55064;49.636;12.164;2023-02-15T19:05:34;40.78;;;14.05;;
68247;SDS011;55064;49.636;12.164;2023-02-15T19:08:08;37.53;;;11.50;;
68247;SDS011;55064;49.636;12.164;2023-02-15T19:10:49;40.27;;;13.07;;
68247;SDS011;55064;49.636;12.164;2023-02-15T19:13:17;45.20;;;14.73;;
68247;SDS011;55064;49.636;12.164;2023-02-15T19:15:43;40.08;;;12.85;;
68247;SDS011;55064;49.636;12.164;2023-02-15T19:18:08;43.93;;;14.00;;
68247;SDS011;55064;49.636;12.164;2023-02-15T19:20:36;47.15;;;13.40;;
68247;SDS011;55064;49.636;12.164;2023-02-15T19:23:13;43.72;;;13.65;;
68247;SDS011;55064;49.636;12.164;2023-02-15T19:25:44;43.42;;;14.43;;
68247;SDS011;55064;49.636;12.164;2023-02-15T19:28:14;41.50;;;13.67;;
68247;SDS011;55064;49.636;12.164;2023-02-15T19:30:56;42.10;;;14.55;;
68247;SDS011;55064;49.636;12.164;2023-02-15T19:33:21;42.08;;;12.15;;
68247;SDS011;55064;49.636;12.164;2023-02-15T19:38:47;36.15;;;12.38;;
68247;SDS011;55064;49.636;12.164;2023-02-15T19:44:43;41.25;;;12.73;;
68247;SDS011;55064;49.636;12.164;2023-02-15T19:47:10;42.55;;;13.55;;